Loisir ou Compétition : Rejoignez un Club de la Fédération

Résultats

CHAMPIONNATS DE FRANCE U16 2ème ETAPE

CHAUX NEUVE

KO-QLF Dames

Jury de Compétition

Délégué Technique :
DREZET DANIEL (MJ)
D.T. Adjoint :
FROSSARD CHRISTIAN (SA)
Dir. Epreuve :
ROLAND CHRISTOPHE (MJ)

Caractéristiques de la Piste

Piste :
Stade de la Côte Feuillée
Distance :
1.4 km
Point Haut :
 
Point Bas :
 
Montée Tot. :
 
Montée Max. :
 
Homologation :
 

Pénalité Appliquée :
90.0000
Coefficient :
1200

Catégorie :
U16
Style :
L
Clt Dos Clt/Cat Code An Nom Prénom Com Club Temps Ecart Points
Classés
1 129 1/U16 FFS2660755 2002 CLOETENS MAYA DA GUC GRENOBLE 4:00.75 00.00 90.00
2 122 2/U16 FFS2660280 2001 GAUTHIER ALEXIANE SA CS LA FECLAZ 4:02.81 02.06 100.27
3 121 3/U16 FFS2667044 2002 VEYRE MAELLE AP MTGVE V.CLAR 4:03.26 02.51 102.51
4 147 4/U16 FFS2654839 2002 GREAU ALIZEE LY SC BRENOD 4:03.33 02.58 102.86
5 130 5/U16 FFS2641082 2001 POTTECHER ZELIE DA GUC GRENOBLE 4:05.56 04.81 113.98
6 141 6/U16 FFS2655477 2001 ABEL CLARA MV VAGNEY ROCHE 4:05.70 04.95 114.67
7 134 7/U16 FFS2649397 2001 CARRIER ROMANE LY SC BRENOD 4:06.51 05.76 118.71
8 164 8/U16 FFS2665516 2001 LEHMANN LISA MB SCNP ROCHOIS 4:06.54 05.79 118.86
9 127 9/U16 FFS2670898 2002 PIERREL JULIE MB SC GD BORNAN 4:07.37 06.62 123.00
10 132 10/U16 FFS2668155 2002 SAVOIE LISA MJ HT JURA SKI 4:07.78 07.03 125.04
11 150 11/U16 FFS2676452 2002 PAGNIER CLOE MJ CHAUX NEUVE 4:09.66 08.91 134.41
12 155 12/U16 FFS2665748 2002 LAURENCE COLINE MJ CSR PONTARLI 4:09.80 09.05 135.11
13 124 13/U16 FFS2665303 2002 MICHELON OCEANE SA BAUGES S.N 4:10.02 09.27 136.21
14 131 14/U16 FFS2644719 2002 RICHON CAPUCINE SA CS LA FECLAZ 4:10.39 09.64 138.05
15 140 15/U16 FFS2671780 2002 DIDIERLAURENT CLEMENCE MV VAGNEY ROCHE 4:10.62 09.87 139.20
16 207 16/U16 FFS2661475 2001 REMONNAY NOEMIE MJ OYE-PALLET 4:10.86 10.11 140.39
17 144 17/U16 FFS2665755 2001 JOMIER MAIWENN MB DRAGONS ANNY 4:10.92 10.17 140.69
18 135 18/U16 FFS2659922 2001 SUIFFET AMELIE SA CS LA FECLAZ 4:11.79 11.04 145.03
19 138 19/U16 FFS2659929 2002 CERDAN ANNOUK LY US CORMARANC 4:11.93 11.18 145.73
20 125 20/U16 FFS2667719 2001 RENARD CHLOE MB SC GD BORNAN 4:12.07 11.32 146.42
21 128 21/U16 FFS2649539 2001 EVEN MAYA DA SA MEAUDRAIS 4:12.08 11.33 146.47
22 136 22/U16 FFS2665310 2002 MUNIER ELODIE SA MONOLITHE SF 4:12.76 12.01 149.86
23 137 23/U16 FFS2653209 2002 DUBOIS SALOMEE MJ SKI ROUSSES 4:12.92 12.17 150.66
24 143 24/U16 FFS2665514 2001 CHAMOUX MATHILDE MB SCNP ROCHOIS 4:13.90 13.15 155.55
25 145 25/U16 FFS2647512 2002 CHAPPAZ FELICIE MB CS LA CLUSAZ 4:14.00 13.25 156.04
26 126 26/U16 FFS2665638 2001 GROSREY LOUNA MJ HT JURA SKI 4:14.13 13.38 156.69
27 158 27/U16 FFS2671448 2002 PATUREL DORINE MB SCNP ROCHOIS 4:14.61 13.86 159.08
28 146 28/U16 FFS2676611 2002 COURVOISIER CELIA MJ SC MONT NOIR 4:14.72 13.97 159.63
29 192 29/U16 FFS2664314 2002 BARON FIONA MJ VAL MORTEAU 4:14.82 14.07 160.13
30 133 30/U16 FFS2643665 2001 DUCHAUFOUR EVE ONDINE MJ SC GRANDVAUX 4:14.83 14.08 160.18
31 210 31/U16 FFS2671188 2002 PELLEGRINI AUGUSTINE MJ OYE-PALLET 4:14.98 14.23 160.93
32 123 32/U16 FFS2665517 2001 KUREK TANIA MB SCNP ROCHOIS 4:15.07 14.32 161.38
33 148 33/U16 FFS2670554 2001 COUPE CAMILLE SA CS LA FECLAZ 4:15.68 14.93 164.42
34 142 34/U16 FFS2655903 2002 BERTRAND FANY SA SC MERIBEL 4:17.09 16.34 171.45
35 154 35/U16 FFS2672086 2002 JAEGGY EMILIE MV SC RANSPACH 4:17.59 16.84 173.94
36 152 36/U16 FFS2660687 2002 GRUNEWALD ELEONORE DA VERCORS SKF 4:17.87 17.12 175.33
37 163 37/U16 FFS2655476 2001 PIERRAT MARIE LOU MV VAGNEY ROCHE 4:19.20 18.45 181.96
38 161 38/U16 FFS2653734 2001 CHICHIGNOUD MARGOT DA US AUTRANNAI 4:20.67 19.92 189.29
39 186 39/U16 FFS2671450 2002 SYLVESTRE BARON CLAIRE MB SCNP ROCHOIS 4:21.00 20.25 190.93
40 139 40/U16 FFS2670903 2002 CROS JEANNE MB SC GD BORNAN 4:22.18 21.43 196.82
41 159 41/U16 FFS2661517 2002 LAUTH EVA DA VERCORS SKF 4:22.61 21.86 198.96
42 170 42/U16 FFS2665301 2002 RAMAZ ADELAIDE SA BAUGES S.N 4:22.64 21.89 199.11
43 179 43/U16 FFS2671190 2002 BILLET EMMA MJ OYE-PALLET 4:22.68 21.93 199.31
44 151 44/U16 FFS2665498 2002 ROCHE LUDMILLA AP AS EDELWEISS 4:24.77 24.02 209.73
45 168 45/U16 FFS2660497 2001 NICOLL EMILY DA US AUTRANNAI 4:25.20 24.45 211.87
46 167 46/U16 FFS2644226 2001 FOULON ELISE DA CS VILLARD 4:25.68 24.93 214.26
47 160 47/U16 FFS2671533 2001 COURTET MANON MJ A.S MOUTHE 4:26.04 25.29 216.06
48 174 48/U16 FFS2655891 2002 GUYON ANNA MJ SKI ROUSSES 4:26.12 25.37 216.45
49 180 49/U16 FFS2647938 2002 SILVE LOUNA AP ORRES EMBRUN 4:26.15 25.40 216.60
50 149 50/U16 FFS2665311 2002 VIGNOL MANON SA MONOLITHE SF 4:26.64 25.89 219.05
51 156 51/U16 FFS2670906 2002 PLACE ISELINE MB SC GD BORNAN 4:26.68 25.93 219.25
52 166 52/U16 FFS2664153 2002 DUBOIS LOUNA DA CS VILLARD 4:27.43 26.68 222.98
53 185 53/U16 FFS2670556 2002 PENDRY SHAWNA PE SC FTROMEUP2 4:27.63 26.88 223.98
54 183 54/U16 FFS2639569 2001 HENAFF ELOISE SA SC ARECHES 4:27.65 26.90 224.08
55 206 55/U16 FFS2667038 2002 GONON CHARLINE AP MTGVE V.CLAR 4:27.96 27.21 225.63
56 153 56/U16 FFS2665618 2001 CAMPION LEANA PE SC FTROMEUP2 4:28.08 27.33 226.22
57 178 57/U16 FFS2665287 2001 CHARVOLIN MARIE DA SNB CHAMROUS 4:28.35 27.60 227.57
58 176 58/U16 FFS2661438 2001 FAVRE FLORINE SA SC ARECHES 4:28.53 27.78 228.47
59 171 59/U16 FFS2655742 2002 GAULIER JULIETTE DA CS VILLARD 4:29.89 29.14 235.25
60 208 60/U16 FFS2645788 2001 FORESTIER DENALIE DA SNO 4:30.59 29.84 238.74
61 173 61/U16 FFS2682651 2002 MORRAL FERANDIS MARIONA PE SC FTROMEUP2 4:30.63 29.88 238.93
62 212 62/U16 FFS2670457 2001 PARENT CYRIELLE MJ DAMPRICHARD 4:30.66 29.91 239.08
63 177 63/U16 FFS2660964 2001 GONTHARET MARIE SA SC PEISEY VA 4:31.40 30.65 242.77
64 181 64/U16 FFS2649489 2002 GAILLARD MARGAUX DA SA MEAUDRAIS 4:31.69 30.94 244.22
65 165 65/U16 FFS2670897 2002 FAVRE BONVIN ZOE MB SC GD BORNAN 4:32.43 31.68 247.91
66 157 66/U16 FFS2656588 2001 BARTHELEMY MAEVA AP LES TROLLS 4:32.70 31.95 249.25
67 197 67/U16 FFS2670779 2002 FROIDURE CLEMENTINE MB SCNP ROCHOIS 4:33.46 32.71 253.04
68 169 68/U16 FFS2654837 2002 CHARVOLIN CANDICE LY SC BRENOD 4:33.80 33.05 254.74
69 172 69/U16 FFS2647523 2001 BONDIER GIRARD NOA SA SC MENUIRES 4:34.13 33.38 256.38
70 199 70/U16 FFS2654800 2002 MAGNIER LUCIE DA US AUTRANNAI 4:34.58 33.83 258.62
71 162 71/U16 FFS2670902 2002 BASTARD ROSSET LUCIE MB SC GD BORNAN 4:34.85 34.10 259.97
72 188 72/U16 FFS2668931 2002 LAURENS LOUISA AP SC QUEYRAS 4:34.94 34.19 260.42
73 190 73/U16 FFS2667022 2002 BAPTISTE LOUNA AP ES VALLOUISE 4:35.55 34.80 263.46
74 187 74/U16 FFS2656544 2002 CROS MARIE DA CS VILLARD 4:36.65 35.90 268.94
75 205 75/U16 FFS2674811 2001 PETITE LEA MJ OYE-PALLET 4:36.83 36.08 269.84
76 209 76/U16 FFS2676147 2002 FEUGUEUR ORLANE MB SC D'AGY 4:37.03 36.28 270.83
77 194 77/U16 FFS2670848 2002 SIMON ANTOINETTE MJ CSR PONTARLI 4:37.44 36.69 272.88
78 175 78/U16 FFS2655708 2002 NIOGRET AGATHE LY CS VALROMEY 4:37.83 37.08 274.82
79 191 79/U16 FFS2668908 2002 GOALABRE ANNE AP SC QUEYRAS 4:39.48 38.73 283.05
80 189 80/U16 FFS2655269 2002 GELDHOF LAURANNE DA SN CHARTROUS 4:39.68 38.93 284.04
81 184 81/U16 FFS2665601 2001 DUFOUR CLAIRANNE MB SC D'AGY 4:39.72 38.97 284.24
82 195 82/U16 FFS2670930 2001 GAYTON SALOME AU SC MEZENC 4:40.86 40.11 289.93
83 200 83/U16 FFS2669082 2002 ELOY LILOU SA COURCHEVEL 4:42.08 41.33 296.01
84 204 84/U16 FFS2671187 2002 LAHEURTE PERRINE MJ OYE-PALLET 4:42.33 41.58 297.25
85 193 85/U16 FFS2659930 2002 MOREL LENA LY US CORMARANC 4:43.72 42.97 304.18
86 203 86/U16 FFS2656647 2001 MARTIN CHENAULT PAULA PE SC FTROMEUP2 4:46.08 45.33 315.94
87 202 87/U16 FFS2671033 2002 DUPONT LOUNA DA CS VILLARD 4:48.74 47.99 329.20
88 196 88/U16 FFS2657399 2002 LAMBRET CAMILLE DA CS VILLARD 4:51.42 50.67 342.56
89 211 89/U16 FFS2660467 2001 SICRE NINON AU EM LA TOUR 4:51.69 50.94 343.91
90 182 90/U16 FFS2670686 2001 BOEHM ELINE MV SC RANSPACH 5:09.23 1:08.48 431.33
91 201 91/U16 FFS2672035 2001 DECOL LAURINE MJ VAL MORTEAU 5:28.32 1:27.57 526.49
Non partants
198 FFS2677081 2002 JEANNIER LEONIE MJ SC VERRIERES